sensor_id;sensor_type;location;lat;lon;timestamp;pressure;altitude;pressure_sealevel;temperature;humidity
19843;BME280;10082;51.038;6.992;2023-02-03T00:02:04;112171.53;;;-144.33;100.00
19843;BME280;10082;51.038;6.992;2023-02-03T00:04:31;112171.53;;;-144.33;100.00
19843;BME280;10082;51.038;6.992;2023-02-03T00:06:58;112171.53;;;-144.33;100.00
19843;BME280;10082;51.038;6.992;2023-02-03T00:09:25;112171.53;;;-144.33;100.00
19843;BME280;10082;51.038;6.992;2023-02-03T00:11:53;112171.53;;;-144.33;100.00
19843;BME280;10082;51.038;6.992;2023-02-03T00:14:21;112171.53;;;-144.33;100.00
19843;BME280;10082;51.038;6.992;2023-02-03T00:16:48;112171.53;;;-144.33;100.00
19843;BME280;10082;51.038;6.992;2023-02-03T00:19:15;112171.53;;;-144.33;100.00
19843;BME280;10082;51.038;6.992;2023-02-03T00:21:42;112171.53;;;-144.33;100.00
19843;BME280;10082;51.038;6.992;2023-02-03T00:24:09;112171.53;;;-144.33;100.00
19843;BME280;10082;51.038;6.992;2023-02-03T00:26:40;112171.53;;;-144.33;100.00
19843;BME280;10082;51.038;6.992;2023-02-03T00:29:07;112171.53;;;-144.33;100.00
19843;BME280;10082;51.038;6.992;2023-02-03T00:31:36;112171.53;;;-144.33;100.00
19843;BME280;10082;51.038;6.992;2023-02-03T00:34:04;112171.53;;;-144.33;100.00
19843;BME280;10082;51.038;6.992;2023-02-03T00:36:32;112171.53;;;-144.33;100.00
19843;BME280;10082;51.038;6.992;2023-02-03T00:38:59;112171.53;;;-144.33;100.00
19843;BME280;10082;51.038;6.992;2023-02-03T00:41:29;112171.53;;;-144.33;100.00
19843;BME280;10082;51.038;6.992;2023-02-03T00:43:56;112171.53;;;-144.33;100.00
19843;BME280;10082;51.038;6.992;2023-02-03T00:46:23;112171.53;;;-144.33;100.00
19843;BME280;10082;51.038;6.992;2023-02-03T00:48:52;112171.53;;;-144.33;100.00
19843;BME280;10082;51.038;6.992;2023-02-03T00:51:19;112171.53;;;-144.33;100.00
19843;BME280;10082;51.038;6.992;2023-02-03T00:53:47;112171.53;;;-144.33;100.00
19843;BME280;10082;51.038;6.992;2023-02-03T00:56:15;112171.53;;;-144.33;100.00
19843;BME280;10082;51.038;6.992;2023-02-03T00:58:43;112171.53;;;-144.33;100.00
19843;BME280;10082;51.038;6.992;2023-02-03T01:01:10;112171.53;;;-144.33;100.00
19843;BME280;10082;51.038;6.992;2023-02-03T01:03:38;112171.53;;;-144.33;100.00
19843;BME280;10082;51.038;6.992;2023-02-03T01:06:12;112171.53;;;-144.33;100.00
19843;BME280;10082;51.038;6.992;2023-02-03T01:08:40;112171.53;;;-144.33;100.00
19843;BME280;10082;51.038;6.992;2023-02-03T01:11:08;112171.53;;;-144.33;100.00
19843;BME280;10082;51.038;6.992;2023-02-03T01:13:36;112171.53;;;-144.33;100.00
19843;BME280;10082;51.038;6.992;2023-02-03T01:16:07;112171.53;;;-144.33;100.00
19843;BME280;10082;51.038;6.992;2023-02-03T01:18:34;112171.53;;;-144.33;100.00
19843;BME280;10082;51.038;6.992;2023-02-03T01:21:06;112171.53;;;-144.33;100.00
19843;BME280;10082;51.038;6.992;2023-02-03T01:23:36;112171.53;;;-144.33;100.00
19843;BME280;10082;51.038;6.992;2023-02-03T01:26:04;112171.53;;;-144.33;100.00
19843;BME280;10082;51.038;6.992;2023-02-03T01:28:33;112171.53;;;-144.33;100.00
19843;BME280;10082;51.038;6.992;2023-02-03T01:31:09;112171.53;;;-144.33;100.00
19843;BME280;10082;51.038;6.992;2023-02-03T01:33:37;112171.53;;;-144.33;100.00
19843;BME280;10082;51.038;6.992;2023-02-03T01:36:06;112171.53;;;-144.33;100.00
19843;BME280;10082;51.038;6.992;2023-02-03T01:38:36;112171.53;;;-144.33;100.00
19843;BME280;10082;51.038;6.992;2023-02-03T01:41:06;112171.53;;;-144.33;100.00
19843;BME280;10082;51.038;6.992;2023-02-03T01:43:36;112171.53;;;-144.33;100.00
19843;BME280;10082;51.038;6.992;2023-02-03T01:46:17;112171.53;;;-144.33;100.00
19843;BME280;10082;51.038;6.992;2023-02-03T01:48:48;112171.53;;;-144.33;100.00
19843;BME280;10082;51.038;6.992;2023-02-03T01:51:16;112171.53;;;-144.33;100.00
19843;BME280;10082;51.038;6.992;2023-02-03T01:53:45;112171.53;;;-144.33;100.00
19843;BME280;10082;51.038;6.992;2023-02-03T01:59:18;112171.53;;;-144.33;100.00
19843;BME280;10082;51.038;6.992;2023-02-03T02:01:48;112171.53;;;-144.33;100.00
19843;BME280;10082;51.038;6.992;2023-02-03T02:04:17;112171.53;;;-144.33;100.00
19843;BME280;10082;51.038;6.992;2023-02-03T02:06:44;112171.53;;;-144.33;100.00
19843;BME280;10082;51.038;6.992;2023-02-03T02:09:14;112171.53;;;-144.33;100.00
19843;BME280;10082;51.038;6.992;2023-02-03T02:11:42;112171.53;;;-144.33;100.00
19843;BME280;10082;51.038;6.992;2023-02-03T02:14:09;112171.53;;;-144.33;100.00
19843;BME280;10082;51.038;6.992;2023-02-03T02:16:40;112171.53;;;-144.33;100.00
19843;BME280;10082;51.038;6.992;2023-02-03T02:19:51;112171.53;;;-144.33;100.00
19843;BME280;10082;51.038;6.992;2023-02-03T02:22:29;112171.53;;;-144.33;100.00
19843;BME280;10082;51.038;6.992;2023-02-03T02:25:28;112171.53;;;-144.33;100.00
19843;BME280;10082;51.038;6.992;2023-02-03T02:28:30;112171.53;;;-144.33;100.00
19843;BME280;10082;51.038;6.992;2023-02-03T02:34:04;112171.53;;;-144.33;100.00
19843;BME280;10082;51.038;6.992;2023-02-03T02:36:42;112171.53;;;-144.33;100.00
19843;BME280;10082;51.038;6.992;2023-02-03T02:39:19;112171.53;;;-144.33;100.00
19843;BME280;10082;51.038;6.992;2023-02-03T02:41:56;112171.53;;;-144.33;100.00
19843;BME280;10082;51.038;6.992;2023-02-03T02:44:29;112171.53;;;-144.33;100.00
19843;BME280;10082;51.038;6.992;2023-02-03T02:47:04;112171.53;;;-144.33;100.00
19843;BME280;10082;51.038;6.992;2023-02-03T02:49:38;112171.53;;;-144.33;100.00
19843;BME280;10082;51.038;6.992;2023-02-03T02:52:10;112171.53;;;-144.33;100.00
19843;BME280;10082;51.038;6.992;2023-02-03T02:54:44;112171.53;;;-144.33;100.00
19843;BME280;10082;51.038;6.992;2023-02-03T02:57:14;112171.53;;;-144.33;100.00
19843;BME280;10082;51.038;6.992;2023-02-03T02:59:44;112171.53;;;-144.33;100.00
19843;BME280;10082;51.038;6.992;2023-02-03T03:02:11;112171.53;;;-144.33;100.00
19843;BME280;10082;51.038;6.992;2023-02-03T03:04:40;112171.53;;;-144.33;100.00
19843;BME280;10082;51.038;6.992;2023-02-03T03:07:12;112171.53;;;-144.33;100.00
19843;BME280;10082;51.038;6.992;2023-02-03T03:09:43;112171.53;;;-144.33;100.00
19843;BME280;10082;51.038;6.992;2023-02-03T03:12:16;112171.53;;;-144.33;100.00
19843;BME280;10082;51.038;6.992;2023-02-03T03:14:48;112171.53;;;-144.33;100.00
19843;BME280;10082;51.038;6.992;2023-02-03T03:17:20;112171.53;;;-144.33;100.00
19843;BME280;10082;51.038;6.992;2023-02-03T03:19:55;112171.53;;;-144.33;100.00
19843;BME280;10082;51.038;6.992;2023-02-03T03:22:26;112171.53;;;-144.33;100.00
19843;BME280;10082;51.038;6.992;2023-02-03T03:25:02;112171.53;;;-144.33;100.00
19843;BME280;10082;51.038;6.992;2023-02-03T03:27:34;112171.53;;;-144.33;100.00
19843;BME280;10082;51.038;6.992;2023-02-03T03:30:07;112171.53;;;-144.33;100.00
19843;BME280;10082;51.038;6.992;2023-02-03T03:32:37;112171.53;;;-144.33;100.00
19843;BME280;10082;51.038;6.992;2023-02-03T03:35:07;112171.53;;;-144.33;100.00
19843;BME280;10082;51.038;6.992;2023-02-03T03:37:37;112171.53;;;-144.33;100.00
19843;BME280;10082;51.038;6.992;2023-02-03T03:40:09;112171.53;;;-144.33;100.00
19843;BME280;10082;51.038;6.992;2023-02-03T03:42:40;112171.53;;;-144.33;100.00
19843;BME280;10082;51.038;6.992;2023-02-03T03:45:15;112171.53;;;-144.33;100.00
19843;BME280;10082;51.038;6.992;2023-02-03T03:47:49;112171.53;;;-144.33;100.00
19843;BME280;10082;51.038;6.992;2023-02-03T03:50:22;112171.53;;;-144.33;100.00
19843;BME280;10082;51.038;6.992;2023-02-03T03:52:52;112171.53;;;-144.33;100.00
19843;BME280;10082;51.038;6.992;2023-02-03T03:55:21;112171.53;;;-144.33;100.00
19843;BME280;10082;51.038;6.992;2023-02-03T03:57:55;112171.53;;;-144.33;100.00
19843;BME280;10082;51.038;6.992;2023-02-03T04:00:27;112171.53;;;-144.33;100.00
19843;BME280;10082;51.038;6.992;2023-02-03T04:03:01;112171.53;;;-144.33;100.00
19843;BME280;10082;51.038;6.992;2023-02-03T04:05:33;112171.53;;;-144.33;100.00
19843;BME280;10082;51.038;6.992;2023-02-03T04:08:00;112171.53;;;-144.33;100.00
19843;BME280;10082;51.038;6.992;2023-02-03T04:10:30;112171.53;;;-144.33;100.00
19843;BME280;10082;51.038;6.992;2023-02-03T04:12:58;112171.53;;;-144.33;100.00
19843;BME280;10082;51.038;6.992;2023-02-03T04:15:26;112171.53;;;-144.33;100.00
19843;BME280;10082;51.038;6.992;2023-02-03T04:17:53;112171.53;;;-144.33;100.00
19843;BME280;10082;51.038;6.992;2023-02-03T04:20:21;112171.53;;;-144.33;100.00
19843;BME280;10082;51.038;6.992;2023-02-03T04:22:50;112171.53;;;-144.33;100.00
19843;BME280;10082;51.038;6.992;2023-02-03T04:25:17;112171.53;;;-144.33;100.00
19843;BME280;10082;51.038;6.992;2023-02-03T04:27:44;112171.53;;;-144.33;100.00
19843;BME280;10082;51.038;6.992;2023-02-03T04:30:13;112171.53;;;-144.33;100.00
19843;BME280;10082;51.038;6.992;2023-02-03T04:32:42;112171.53;;;-144.33;100.00
19843;BME280;10082;51.038;6.992;2023-02-03T04:35:10;112171.53;;;-144.33;100.00
19843;BME280;10082;51.038;6.992;2023-02-03T04:37:37;112171.53;;;-144.33;100.00
19843;BME280;10082;51.038;6.992;2023-02-03T04:43:54;112171.53;;;-144.33;100.00
19843;BME280;10082;51.038;6.992;2023-02-03T04:46:21;112171.53;;;-144.33;100.00
19843;BME280;10082;51.038;6.992;2023-02-03T04:48:48;112171.53;;;-144.33;100.00
19843;BME280;10082;51.038;6.992;2023-02-03T04:51:15;112171.53;;;-144.33;100.00
19843;BME280;10082;51.038;6.992;2023-02-03T04:53:42;112171.53;;;-144.33;100.00
19843;BME280;10082;51.038;6.992;2023-02-03T04:56:09;112171.53;;;-144.33;100.00
19843;BME280;10082;51.038;6.992;2023-02-03T04:58:36;112171.53;;;-144.33;100.00
19843;BME280;10082;51.038;6.992;2023-02-03T05:01:08;112171.53;;;-144.33;100.00
19843;BME280;10082;51.038;6.992;2023-02-03T05:03:35;112171.53;;;-144.33;100.00
19843;BME280;10082;51.038;6.992;2023-02-03T05:06:03;112171.53;;;-144.33;100.00
19843;BME280;10082;51.038;6.992;2023-02-03T05:08:30;112171.53;;;-144.33;100.00
19843;BME280;10082;51.038;6.992;2023-02-03T05:11:00;112171.53;;;-144.33;100.00
19843;BME280;10082;51.038;6.992;2023-02-03T05:13:28;112171.53;;;-144.33;100.00
19843;BME280;10082;51.038;6.992;2023-02-03T05:15:55;112171.53;;;-144.33;100.00
19843;BME280;10082;51.038;6.992;2023-02-03T05:18:24;112171.53;;;-144.33;100.00
19843;BME280;10082;51.038;6.992;2023-02-03T05:20:51;112171.53;;;-144.33;100.00
19843;BME280;10082;51.038;6.992;2023-02-03T05:23:18;112171.53;;;-144.33;100.00
19843;BME280;10082;51.038;6.992;2023-02-03T05:25:45;112171.53;;;-144.33;100.00
19843;BME280;10082;51.038;6.992;2023-02-03T05:28:13;112171.53;;;-144.33;100.00
19843;BME280;10082;51.038;6.992;2023-02-03T05:30:41;112171.53;;;-144.33;100.00
19843;BME280;10082;51.038;6.992;2023-02-03T05:33:08;112171.53;;;-144.33;100.00
19843;BME280;10082;51.038;6.992;2023-02-03T05:35:36;112171.53;;;-144.33;100.00
19843;BME280;10082;51.038;6.992;2023-02-03T05:38:03;112171.53;;;-144.33;100.00
19843;BME280;10082;51.038;6.992;2023-02-03T05:40:31;112171.53;;;-144.33;100.00
19843;BME280;10082;51.038;6.992;2023-02-03T05:43:15;112171.53;;;-144.33;100.00
19843;BME280;10082;51.038;6.992;2023-02-03T05:45:42;112171.53;;;-144.33;100.00
19843;BME280;10082;51.038;6.992;2023-02-03T05:48:10;112171.53;;;-144.33;100.00
19843;BME280;10082;51.038;6.992;2023-02-03T05:50:39;112171.53;;;-144.33;100.00
19843;BME280;10082;51.038;6.992;2023-02-03T05:53:06;112171.53;;;-144.33;100.00
19843;BME280;10082;51.038;6.992;2023-02-03T05:55:36;112171.53;;;-144.33;100.00
19843;BME280;10082;51.038;6.992;2023-02-03T05:58:03;112171.53;;;-144.33;100.00
19843;BME280;10082;51.038;6.992;2023-02-03T06:00:31;112171.53;;;-144.33;100.00
19843;BME280;10082;51.038;6.992;2023-02-03T06:02:59;112171.53;;;-144.33;100.00
19843;BME280;10082;51.038;6.992;2023-02-03T06:05:29;112171.53;;;-144.33;100.00
19843;BME280;10082;51.038;6.992;2023-02-03T06:07:58;112171.53;;;-144.33;100.00
19843;BME280;10082;51.038;6.992;2023-02-03T06:10:26;112171.53;;;-144.33;100.00
19843;BME280;10082;51.038;6.992;2023-02-03T06:12:53;112171.53;;;-144.33;100.00
19843;BME280;10082;51.038;6.992;2023-02-03T06:15:20;112171.53;;;-144.33;100.00
19843;BME280;10082;51.038;6.992;2023-02-03T06:17:48;112171.53;;;-144.33;100.00
19843;BME280;10082;51.038;6.992;2023-02-03T06:20:17;112171.53;;;-144.33;100.00
19843;BME280;10082;51.038;6.992;2023-02-03T06:22:44;112171.53;;;-144.33;100.00
19843;BME280;10082;51.038;6.992;2023-02-03T06:25:14;112171.53;;;-144.33;100.00
19843;BME280;10082;51.038;6.992;2023-02-03T06:27:41;112171.53;;;-144.33;100.00
19843;BME280;10082;51.038;6.992;2023-02-03T06:30:21;112171.53;;;-144.33;100.00
19843;BME280;10082;51.038;6.992;2023-02-03T06:32:49;112171.53;;;-144.33;100.00
19843;BME280;10082;51.038;6.992;2023-02-03T06:35:16;112171.53;;;-144.33;100.00
19843;BME280;10082;51.038;6.992;2023-02-03T06:37:43;112171.53;;;-144.33;100.00
19843;BME280;10082;51.038;6.992;2023-02-03T06:40:11;112171.53;;;-144.33;100.00
19843;BME280;10082;51.038;6.992;2023-02-03T06:42:44;112171.53;;;-144.33;100.00
19843;BME280;10082;51.038;6.992;2023-02-03T06:45:11;112171.53;;;-144.33;100.00
19843;BME280;10082;51.038;6.992;2023-02-03T06:47:39;112171.53;;;-144.33;100.00
19843;BME280;10082;51.038;6.992;2023-02-03T06:50:07;112171.53;;;-144.33;100.00
19843;BME280;10082;51.038;6.992;2023-02-03T06:52:35;112171.53;;;-144.33;100.00
19843;BME280;10082;51.038;6.992;2023-02-03T06:55:02;112171.53;;;-144.33;100.00
19843;BME280;10082;51.038;6.992;2023-02-03T06:57:29;112171.53;;;-144.33;100.00
19843;BME280;10082;51.038;6.992;2023-02-03T06:59:58;112171.53;;;-144.33;100.00
19843;BME280;10082;51.038;6.992;2023-02-03T07:02:26;112171.53;;;-144.33;100.00
19843;BME280;10082;51.038;6.992;2023-02-03T07:04:53;112113.16;;;-144.33;100.00
19843;BME280;10082;51.038;6.992;2023-02-03T07:07:20;111934.03;;;-144.33;100.00
19843;BME280;10082;51.038;6.992;2023-02-03T07:09:47;111688.47;;;-144.33;100.00
19843;BME280;10082;51.038;6.992;2023-02-03T07:12:14;111477.13;;;-144.33;100.00
19843;BME280;10082;51.038;6.992;2023-02-03T07:14:41;111489.19;;;-144.33;100.00
19843;BME280;10082;51.038;6.992;2023-02-03T07:17:10;111058.50;;;-144.33;100.00
19843;BME280;10082;51.038;6.992;2023-02-03T07:19:37;110859.28;;;-144.33;100.00
19843;BME280;10082;51.038;6.992;2023-02-03T07:22:04;110171.13;;;-144.33;100.00
19843;BME280;10082;51.038;6.992;2023-02-03T07:24:31;109825.09;;;-144.33;100.00
19843;BME280;10082;51.038;6.992;2023-02-03T07:26:59;110044.38;;;-144.33;100.00
19843;BME280;10082;51.038;6.992;2023-02-03T07:29:26;109501.19;;;-144.33;100.00
19843;BME280;10082;51.038;6.992;2023-02-03T07:31:52;108823.31;;;-144.33;100.00
19843;BME280;10082;51.038;6.992;2023-02-03T07:34:21;108662.41;;;-144.33;100.00
19843;BME280;10082;51.038;6.992;2023-02-03T07:36:48;108308.44;;;-144.33;100.00
19843;BME280;10082;51.038;6.992;2023-02-03T07:39:15;108244.09;;;-144.33;100.00
19843;BME280;10082;51.038;6.992;2023-02-03T07:41:42;107783.59;;;-144.33;100.00
19843;BME280;10082;51.038;6.992;2023-02-03T07:44:09;107626.75;;;-144.33;100.00
19843;BME280;10082;51.038;6.992;2023-02-03T07:46:36;107325.16;;;-144.33;100.00
19843;BME280;10082;51.038;6.992;2023-02-03T07:49:09;107144.19;;;-144.33;100.00
19843;BME280;10082;51.038;6.992;2023-02-03T07:51:37;107252.75;;;-144.33;100.00
19843;BME280;10082;51.038;6.992;2023-02-03T07:54:05;106695.88;;;-144.33;100.00
19843;BME280;10082;51.038;6.992;2023-02-03T07:56:38;106392.34;;;-144.33;100.00
19843;BME280;10082;51.038;6.992;2023-02-03T07:59:05;106147.09;;;-144.33;100.00
19843;BME280;10082;51.038;6.992;2023-02-03T08:01:32;105692.88;;;-144.33;100.00
19843;BME280;10082;51.038;6.992;2023-02-03T08:03:59;105266.81;;;-144.33;100.00
19843;BME280;10082;51.038;6.992;2023-02-03T08:06:29;105017.66;;;-144.33;100.00
19843;BME280;10082;51.038;6.992;2023-02-03T08:08:58;104824.75;;;-144.33;100.00
19843;BME280;10082;51.038;6.992;2023-02-03T08:11:25;104513.31;;;-144.33;100.00
19843;BME280;10082;51.038;6.992;2023-02-03T08:13:52;104163.72;;;-144.33;100.00
19843;BME280;10082;51.038;6.992;2023-02-03T08:16:19;103703.69;;;-144.33;100.00
19843;BME280;10082;51.038;6.992;2023-02-03T08:18:46;103462.63;;;-144.33;100.00
19843;BME280;10082;51.038;6.992;2023-02-03T08:21:13;102914.28;;;-144.33;100.00
19843;BME280;10082;51.038;6.992;2023-02-03T08:23:40;102546.78;;;-144.33;100.00
19843;BME280;10082;51.038;6.992;2023-02-03T08:26:08;102171.25;;;-144.33;100.00
19843;BME280;10082;51.038;6.992;2023-02-03T08:28:35;101781.72;;;-144.33;100.00
19843;BME280;10082;51.038;6.992;2023-02-03T08:31:08;101420.31;;;-144.33;100.00
19843;BME280;10082;51.038;6.992;2023-02-03T08:33:36;100852.19;;;-144.33;100.00
19843;BME280;10082;51.038;6.992;2023-02-03T08:36:03;100968.59;;;-144.33;100.00
19843;BME280;10082;51.038;6.992;2023-02-03T08:38:31;100771.88;;;-144.33;100.00
19843;BME280;10082;51.038;6.992;2023-02-03T08:40:58;100643.41;;;-144.33;100.00
19843;BME280;10082;51.038;6.992;2023-02-03T08:43:26;100824.06;;;-144.33;100.00
19843;BME280;10082;51.038;6.992;2023-02-03T08:45:53;101217.53;;;-144.33;100.00
19843;BME280;10082;51.038;6.992;2023-02-03T08:48:20;101338.00;;;-144.33;100.00
19843;BME280;10082;51.038;6.992;2023-02-03T08:50:47;101856.00;;;-144.33;100.00
19843;BME280;10082;51.038;6.992;2023-02-03T08:53:17;102279.69;;;-144.33;100.00
19843;BME280;10082;51.038;6.992;2023-02-03T08:55:44;102894.22;;;-144.33;100.00
19843;BME280;10082;51.038;6.992;2023-02-03T08:58:11;103269.78;;;-144.33;100.00
19843;BME280;10082;51.038;6.992;2023-02-03T09:00:40;103607.25;;;-144.33;100.00
19843;BME280;10082;51.038;6.992;2023-02-03T09:03:08;103500.78;;;-144.33;100.00
19843;BME280;10082;51.038;6.992;2023-02-03T09:05:35;103916.63;;;-144.33;100.00
19843;BME280;10082;51.038;6.992;2023-02-03T09:08:02;103904.56;;;-144.33;100.00
19843;BME280;10082;51.038;6.992;2023-02-03T09:10:29;103946.75;;;-144.33;100.00
19843;BME280;10082;51.038;6.992;2023-02-03T09:12:56;103358.19;;;-144.33;100.00
19843;BME280;10082;51.038;6.992;2023-02-03T09:15:23;102996.63;;;-144.33;100.00
19843;BME280;10082;51.038;6.992;2023-02-03T09:17:53;102703.41;;;-144.33;100.00
19843;BME280;10082;51.038;6.992;2023-02-03T09:20:22;102151.16;;;-144.33;100.00
19843;BME280;10082;51.038;6.992;2023-02-03T09:22:50;101641.16;;;-144.33;100.00
19843;BME280;10082;51.038;6.992;2023-02-03T09:25:19;101510.66;;;-144.33;100.00
19843;BME280;10082;51.038;6.992;2023-02-03T09:27:46;101044.91;;;-144.33;100.00
19843;BME280;10082;51.038;6.992;2023-02-03T09:30:13;101004.75;;;-144.33;100.00
19843;BME280;10082;51.038;6.992;2023-02-03T09:32:41;100729.72;;;-144.33;100.00
19843;BME280;10082;51.038;6.992;2023-02-03T09:35:09;101344.03;;;-144.33;100.00
19843;BME280;10082;51.038;6.992;2023-02-03T09:37:36;102191.34;;;-144.33;100.00
19843;BME280;10082;51.038;6.992;2023-02-03T09:40:04;102400.19;;;-144.33;100.00
19843;BME280;10082;51.038;6.992;2023-02-03T09:43:01;103199.50;;;-144.33;100.00
19843;BME280;10082;51.038;6.992;2023-02-03T09:45:30;103908.56;;;-144.33;100.00
19843;BME280;10082;51.038;6.992;2023-02-03T09:48:02;104891.06;;;-144.33;100.00
19843;BME280;10082;51.038;6.992;2023-02-03T09:50:33;106219.47;;;-144.33;100.00
19843;BME280;10082;51.038;6.992;2023-02-03T09:53:05;108121.41;;;-144.33;100.00
19843;BME280;10082;51.038;6.992;2023-02-03T09:55:37;109613.84;;;-144.33;100.00
19843;BME280;10082;51.038;6.992;2023-02-03T09:58:09;110513.19;;;-144.33;100.00
19843;BME280;10082;51.038;6.992;2023-02-03T10:00:41;110511.16;;;-144.33;100.00
19843;BME280;10082;51.038;6.992;2023-02-03T10:03:16;111418.75;;;-144.33;100.00
19843;BME280;10082;51.038;6.992;2023-02-03T10:06:07;112139.34;;;-144.33;100.00
19843;BME280;10082;51.038;6.992;2023-02-03T10:08:46;112171.53;;;-144.33;100.00
19843;BME280;10082;51.038;6.992;2023-02-03T10:11:26;112171.53;;;-144.33;100.00
19843;BME280;10082;51.038;6.992;2023-02-03T10:14:08;112171.53;;;-144.33;100.00
19843;BME280;10082;51.038;6.992;2023-02-03T10:16:51;112171.53;;;-144.33;100.00
19843;BME280;10082;51.038;6.992;2023-02-03T10:19:25;112171.53;;;-144.33;100.00
19843;BME280;10082;51.038;6.992;2023-02-03T10:21:57;112171.53;;;-144.33;100.00
19843;BME280;10082;51.038;6.992;2023-02-03T10:24:27;112171.53;;;-144.33;100.00
19843;BME280;10082;51.038;6.992;2023-02-03T10:27:00;112171.53;;;-144.33;100.00
19843;BME280;10082;51.038;6.992;2023-02-03T10:29:30;112171.53;;;-144.33;100.00
19843;BME280;10082;51.038;6.992;2023-02-03T10:32:07;112171.53;;;-144.33;100.00
19843;BME280;10082;51.038;6.992;2023-02-03T10:34:35;112171.53;;;-144.33;100.00
19843;BME280;10082;51.038;6.992;2023-02-03T10:37:09;112171.53;;;-144.33;100.00
19843;BME280;10082;51.038;6.992;2023-02-03T10:39:42;112171.53;;;-144.33;100.00
19843;BME280;10082;51.038;6.992;2023-02-03T10:42:12;112171.53;;;-144.33;100.00
19843;BME280;10082;51.038;6.992;2023-02-03T10:44:42;112171.53;;;-144.33;100.00
19843;BME280;10082;51.038;6.992;2023-02-03T10:47:19;112171.53;;;-144.33;100.00
19843;BME280;10082;51.038;6.992;2023-02-03T10:49:50;112171.53;;;-144.33;100.00
19843;BME280;10082;51.038;6.992;2023-02-03T10:52:52;112171.53;;;-144.33;100.00
19843;BME280;10082;51.038;6.992;2023-02-03T10:55:39;112171.53;;;-144.33;100.00
19843;BME280;10082;51.038;6.992;2023-02-03T10:58:14;112171.53;;;-144.33;100.00
19843;BME280;10082;51.038;6.992;2023-02-03T11:00:42;112171.53;;;-144.33;100.00
19843;BME280;10082;51.038;6.992;2023-02-03T11:03:20;112171.53;;;-144.33;100.00
19843;BME280;10082;51.038;6.992;2023-02-03T11:06:03;112171.53;;;-144.33;100.00
19843;BME280;10082;51.038;6.992;2023-02-03T11:08:33;112171.53;;;-144.33;100.00
19843;BME280;10082;51.038;6.992;2023-02-03T11:11:03;112171.53;;;-144.33;100.00
19843;BME280;10082;51.038;6.992;2023-02-03T11:13:32;112171.53;;;-144.33;100.00
19843;BME280;10082;51.038;6.992;2023-02-03T11:16:00;112171.53;;;-144.33;100.00
19843;BME280;10082;51.038;6.992;2023-02-03T11:18:46;112171.53;;;-144.33;100.00
19843;BME280;10082;51.038;6.992;2023-02-03T11:21:15;112171.53;;;-144.33;100.00
19843;BME280;10082;51.038;6.992;2023-02-03T11:23:49;112171.53;;;-144.33;100.00
19843;BME280;10082;51.038;6.992;2023-02-03T11:26:20;112171.53;;;-144.33;100.00
19843;BME280;10082;51.038;6.992;2023-02-03T11:28:49;112171.53;;;-144.33;100.00
19843;BME280;10082;51.038;6.992;2023-02-03T11:31:21;112171.53;;;-144.33;100.00
19843;BME280;10082;51.038;6.992;2023-02-03T11:33:56;112171.53;;;-144.33;100.00
19843;BME280;10082;51.038;6.992;2023-02-03T11:36:29;112171.53;;;-144.33;100.00
19843;BME280;10082;51.038;6.992;2023-02-03T11:39:22;112171.53;;;-144.33;100.00
19843;BME280;10082;51.038;6.992;2023-02-03T11:41:49;112171.53;;;-144.33;100.00
19843;BME280;10082;51.038;6.992;2023-02-03T11:44:22;112171.53;;;-144.33;100.00
19843;BME280;10082;51.038;6.992;2023-02-03T11:46:54;112171.53;;;-144.33;100.00
19843;BME280;10082;51.038;6.992;2023-02-03T11:55:29;112171.53;;;-144.33;100.00
19843;BME280;10082;51.038;6.992;2023-02-03T11:58:11;112171.53;;;-144.33;100.00
19843;BME280;10082;51.038;6.992;2023-02-03T12:00:49;112171.53;;;-144.33;100.00
19843;BME280;10082;51.038;6.992;2023-02-03T12:03:37;112171.53;;;-144.33;100.00
19843;BME280;10082;51.038;6.992;2023-02-03T12:06:26;112171.53;;;-144.33;100.00
19843;BME280;10082;51.038;6.992;2023-02-03T12:09:15;112171.53;;;-144.33;100.00
19843;BME280;10082;51.038;6.992;2023-02-03T12:14:53;112171.53;;;-144.33;100.00
19843;BME280;10082;51.038;6.992;2023-02-03T12:17:53;112171.53;;;-144.33;100.00
19843;BME280;10082;51.038;6.992;2023-02-03T12:20:34;112171.53;;;-144.33;100.00
19843;BME280;10082;51.038;6.992;2023-02-03T12:23:14;112171.53;;;-144.33;100.00
19843;BME280;10082;51.038;6.992;2023-02-03T12:25:54;112171.53;;;-144.33;100.00
19843;BME280;10082;51.038;6.992;2023-02-03T12:28:39;112171.53;;;-144.33;100.00
19843;BME280;10082;51.038;6.992;2023-02-03T12:31:12;112171.53;;;-144.33;100.00
19843;BME280;10082;51.038;6.992;2023-02-03T12:33:45;112171.53;;;-144.33;100.00
19843;BME280;10082;51.038;6.992;2023-02-03T12:36:18;112171.53;;;-144.33;100.00
19843;BME280;10082;51.038;6.992;2023-02-03T12:38:50;112171.53;;;-144.33;100.00
19843;BME280;10082;51.038;6.992;2023-02-03T12:41:23;112171.53;;;-144.33;100.00
19843;BME280;10082;51.038;6.992;2023-02-03T12:44:00;112171.53;;;-144.33;100.00
19843;BME280;10082;51.038;6.992;2023-02-03T12:46:32;112171.53;;;-144.33;100.00
19843;BME280;10082;51.038;6.992;2023-02-03T12:49:05;112171.53;;;-144.33;100.00
19843;BME280;10082;51.038;6.992;2023-02-03T12:51:40;112171.53;;;-144.33;100.00
19843;BME280;10082;51.038;6.992;2023-02-03T12:54:22;112171.53;;;-144.33;100.00
19843;BME280;10082;51.038;6.992;2023-02-03T12:56:52;112171.53;;;-144.33;100.00
19843;BME280;10082;51.038;6.992;2023-02-03T12:59:24;112171.53;;;-144.33;100.00